Aeroporto :
LOGIN :

Iscrizione | Disclaimer

   EN    FR    IT 

 










Sommario :    VFR   VFR Marginale   IFR   IFR Intensivo   IFR Molto Intensivo
Visibilità : 
Base nubi : 
>= 8 km
>= 3000ft
5 / 8 km
1000 / 3000 ft
1500m / 5 km
500 / 1000 ft
800 / 1500m
200 / 500 ft
< 800m
< 200 ft
Simboli :   Temporali  Nebbia  Neve Forte  Precipitazioni Forti  Vento > 20 kt
SIGMETs :   Varie  Temporali  Ghiacco  Turbolenza  Onda orograficha  Ceneri Vulcaniche






- Altitudine del aeroporto : 1521 ft
- Codice IATA : NCY


LFLP - Annecy

ULTIMO METAR :
  • 200000Z AUTO 03004KT 350V060 7000 RA OVC025 06/05 Q1017

METARs OBSOLETI :
  • 192330Z AUTO 11003KT 060V150 9999 FEW010 OVC028 06/05 Q1017
  • 192300Z AUTO VRB03KT 9999 OVC028 06/05 Q1017
  • 192230Z AUTO 14004KT 030V200 9999 -RA OVC030 06/05 Q1017
  • 192200Z AUTO VRB02KT 7000 -RA OVC032 06/05 Q1017
  • 192130Z AUTO VRB01KT 9999 -RA OVC035/// ///TCU 07/05 Q1017
  • 192100Z AUTO 13007KT 9999 -RA BKN037/// OVC043/// ///TCU 07/04 Q1017
  • 192030Z AUTO 00000KT 9999 OVC044/// ///TCU 08/05 Q1017
  • 192000Z AUTO VRB02KT 9999 -RA OVC048 08/03 Q1017
  • 191930Z AUTO VRB02KT 9999 -RA OVC048 09/02 Q1017

TAF TAF LFLP
Valido dal 19 a 15 ore il 20 a 15 ore UTC


191400Z 1915/2015 VRB05KT 9999 BKN065
BECMG 1919/1921 -RA OVC035
PROB40
TEMPO 1921/2001 4000 RA BKN009
FM200100 32008KT 9999 BKN050
PROB40
TEMPO 2001/2006 SCT012 BKN030
BECMG 2006/2008 02010KT
BECMG 2009/2011 FEW045TCU SCT055
PROB40
TEMPO 2011/2015 02015G25KT -SHRA BKN045TCU



MetMap, La meteo Aeronautica in un colpo d'occhio ! - Copyright ORBIFLY Dicembre 2007 - Disclaimer

ORBIFLY MET'MAP TEAM :

Programmazione e sviluppo : Alexandra Zaïnal
Concezione : Baudouin d'Aumeries
Supporto tecnico e logistico : Manuel Goepfert
Aiuto : Marc-Olivier Méhu
Aiuto per la traduzione : Arnaldo La Scala




FONTI E CREDITI :

   NOAA